Choose a state:
Most recent flow and stage for Georgia
(Stations highlighted in red are currently above flood stage)
USGS
station
ID
USGS station name NWS
flood
stage
(ft)
Most recent
stage
(ft)
Most recent
flow
(cfs)
Historical
peaks
(cfs)
Most recent
local
date/time
NWS
station
ID
02176930 CHATTOOGA RIVER AT BURRELLS FORD, NR PINE MTN, GA 7 1.00 82.0 5,140 2022-06-29 00:45:00 BURG1
02177000 CHATTOOGA RIVER NEAR CLAYTON, GA 15 1.56 329 33,300 2022-06-29 01:00:00 CYNG1
02178400 TALLULAH RIVER NEAR CLAYTON, GA 20 2.20 105 8,500 2022-06-29 01:45:00 TRTG1
02180400 TIGER CREEK NEAR LAKEMONT, GA   0.45 36.9 4,160 2022-06-29 01:15:00  
02181350 TALLULAH R AT TERRORA PWRHSE, NR TALLULAH FALLS,GA   2.08 50.8 7,500 2022-06-29 01:30:00  
02181580 TALLULAH RIVER AB POWERHOUSE, NR TALLULAH FALLS,GA 36 5.16 40.9 21,000 2022-06-29 01:15:00 TFLG1
02188600 BEAVERDAM CREEK ABOVE ELBERTON, GA 10 2.09 20.7 4,100 2022-06-29 01:00:00 BVDG1
02191227 GROVE CREEK AT US 441 AND GA 15 NEAR COMMERCE, GA 15 6.68 27.3 2,130 2022-06-29 01:15:00 GCBG1
02191300 BROAD RIVER ABOVE CARLTON, GA 15 2.84 398 70,000 2022-06-29 01:45:00 CARG1
02192000 BROAD RIVER NEAR BELL, GA 21 4.09 458 79,400 2022-06-29 01:30:00 BELG1
02193340 KETTLE CREEK NEAR WASHINGTON, GA 14 3.21 4.77 4,150 2022-06-29 01:45:00 KETG1
02193500 LITTLE RIVER NEAR WASHINGTON, GA 19 4.34 12.7 15,500 2022-06-29 01:00:00 WTNG1
02195320 KIOKEE CREEK AT GA 104, NEAR EVANS, GA 19 0.11 4.88 9,260 2022-06-29 01:00:00 EVNG1
02195520 SAVANNAH RIVER NEAR EVANS, GA   15.43

 

  2022-06-29 01:00:00 EVSG1
02196485 AUGUSTA CANAL NR AUGUSTA, GA (UPPER)   6.63 2,070 4,820 2022-06-29 01:30:00  
02196670 SAVANNAH RIVER JEFFERSON DAVIS BR, AT AUGUSTA, GA   14.17 4,910   2022-06-29 01:30:00 SRAG1
02196835 BUTLER CREEK BELOW 7TH AVENUE, AT FT. GORDON, GA   2.76

 

510 2022-06-29 01:00:00  
02196838 BUTLER CREEK RESERVOIR AT FORT GORDON, GA   27.11

 

  2022-06-29 01:15:00  
021968385 BUTLER CR BELOW BUTLER CR RSVR AT FORT GORDON, GA   0.71 3.49   2022-06-29 01:00:00  
02196999 SAVANNAH RV ABOVE NEW SAV. LOCK AND DAM   114.55

 

  2022-06-29 01:45:00  
02197000 SAVANNAH RIVER AT AUGUSTA, GA 117.5 98.89 5,480 350,000 2022-06-29 01:45:00 AUGG1
02197020 SPIRIT CREEK AT US 1, NEAR AUGUSTA, GA 12 2.75 11.3 4,070 2022-06-29 01:00:00 SPTG1
021973269 SAVANNAH RIVER NEAR WAYNESBORO, GA   8.50 6,270 24,000 2022-06-29 01:15:00 GIRG1
02197500 SAVANNAH R AT BURTONS FERRY BR NR MILLHAVEN, GA 15 6.26 6,380 220,000 2022-06-29 00:45:00 BFYG1
02197598 BRUSHY CREEK AT CAMPGROUND ROAD, NEAR WRENS, GA 8 1.70 5.31 453 2022-06-29 01:15:00 WRNG1
02197830 BRIER CREEK NEAR WAYNESBORO, GA 11 3.72 78.9 48,000 2022-06-29 01:30:00 BCWG1
02198000 BRIER CREEK AT MILLHAVEN, GA 15 0.32 75.9 64,000 2022-06-29 01:00:00 BRIG1
02198100 BEAVERDAM CREEK NEAR SARDIS, GA   1.05 3.54 4,070 2022-06-29 01:00:00  
02198500 SAVANNAH RIVER NEAR CLYO, GA 11 4.50 6,560 270,000 2022-06-29 01:15:00 CLYG1
02198690 EBENEZER CREEK AT SPRINGFIELD, GA 17 3.45 0.46 8,960 2022-06-29 01:00:00 EBZG1
02198810 ABERCORN CREEK NEAR SAVANNAH,GA   2.58 3,020   2022-06-29 01:45:00  
02198820 ABERCORN CREEK AT MOUTH NEAR SAVANNAH, GA   3.11

 

  2022-06-29 01:00:00  
02198840 SAVANNAH RIVER (I-95) NEAR PORT WENTWORTH, GA   1.84 25,400 6.20 2022-06-29 01:45:00  
02198920 SAVANNAH RIVER AT GA 25, AT PORT WENTWORTH, GA   -0.22 47,200 2022-06-29 01:30:00 PWNG1
02198950 MIDDLE RIVER AT GA 25 AT PORT WENTWORTH, GA   0.37 12,900   2022-06-29 01:15:00  
021989715 SAVANNAH RIVER AT GARDEN CITY, GA   -1.04

 

  2022-06-29 01:45:00 GCYG1
021989773 SAVANNAH RIVER AT USACE DOCK, AT SAVANNAH, GA   -0.51 46,500   2022-06-29 01:15:00 SVDG1
021989784 L BACK RIVER ABOVE LUCKNOW CANAL, NR LIMEHOUSE, SC   1.78

 

  2022-06-29 01:30:00  
021989791 LITTLE BACK RIVER AT F&W DOCK, NEAR LIMEHOUSE, SC   2.53

 

  2022-06-29 00:45:00  
021989792 LITTLE BACK RIVER AT GA 25 AT PORT WENTWORTH, GA   0.99 10,100   2022-06-29 01:30:00  
0219897993 SAVANNAH RIVER AT ELBA ISLAND, NEAR SAVANNAH, GA   -1.08

 

  2022-06-29 01:30:00  
02198980 SAVANNAH RIVER AT FORT PULASKI, GA   -1.03 124,000   2022-06-29 01:15:00  
02200120 OGEECHEE RIVER AT GA 88, NEAR GRANGE, GA 18 6.78 37.9 11,700 2022-06-29 01:15:00 GRGG1
02201000 WILLIAMSON SWAMP CREEK AT DAVISBORO, GA 10 2.33 17.9 9,320 2022-06-29 01:45:00 DAVG1
02201230 OGEECHEE RIVER AT MIDVILLE, GA 6 -0.87 64.8 59,000 2022-06-29 01:00:00 MDVG1
02202040 OGEECHEE RIVER AT ROCKY FORD RD, NR ROCKY FORD, GA 13 2.44 111 75,000 2022-06-29 01:00:00 RFDG1
02202190 OGEECHEE RIVER AT GA 24, NEAR OLIVER, GA   4.88 169 76,000 2022-06-29 01:30:00 OLVG1
02202500 OGEECHEE RIVER NEAR EDEN, GA 11 1.91 180 78,000 2022-06-29 01:15:00 EDEG1
02202600 BLACK CREEK NEAR BLITCHTON, GA 18 2.63 4.59 11,100 2022-06-29 01:15:00 BLIG1
02202680 OGEECHEE RIVER AT GA 204, NEAR ELLABELL, GA   3.01 277 80,000 2022-06-29 01:15:00 ELLG1
02203000 CANOOCHEE RIVER NEAR CLAXTON, GA 11 1.19 6.75 20,500 2022-06-29 01:15:00 CNOG1
02203518 CANOOCHEE RIVER AT BRIDGE 38, AT FORT STEWART, GA 17 5.45 75.5 25,800 2022-06-29 01:30:00 FSBG1
02203536 OGEECHEE RIVER AT US 17, NEAR RICHMOND HILL, GA   3.28 6,090 110,000 2022-06-29 01:15:00 RICG1
02203557 PEACOCK CREEK AT ATLANTIC RR LINE NR MCINTOSH, GA 14 4.85 26.2 1,400 2022-06-29 01:15:00 MTHG1
022035975 HUDSON CREEK AT MERIDIAN LANDING, NEAR MERIDIAN,GA 10.2 -1.01

 

  2022-06-29 01:15:00 MERG1
02203603 SOUTH RIVER AT SPRINGDALE ROAD, AT ATLANTA, GA 17 2.49

 

2022-06-29 01:15:00 SEPG1
02203655 SOUTH RIVER AT FORREST PARK ROAD, AT ATLANTA, GA 15 3.27 25.4 3,400 2022-06-29 01:15:00 STHG1
02203700 INTRENCHMENT CR AT CONSTITUTION RD, NR ATLANTA, GA 11 3.33 29.7 4,100 2022-06-29 01:15:00 INTG1
02203831 DOOLITTLE CREEK AT FLAT SHOALS RD, NR DECATUR, GA 8 1.30 7.77 1,140 2022-06-29 01:00:00 DLCG1
02203863 SHOAL CREEK AT COLUMBIA DRIVE NEAR ATLANTA, GA 11 3.66 8.19 848 2022-06-29 01:15:00 SHOG1
02203873 COBBS CREEK AT RAINBOW DR, NEAR DECATUR, GA 11 1.67 4.44 3,040 2022-06-29 01:30:00 COBG1
02203900 SOUTH RIVER AT FLAKES MILL ROAD NR ATLANTA, GA 13 3.20 164 12,500 2022-06-29 01:00:00 SFMG1
02203950 SNAPFINGER CREEK NEAR DECATUR, GA 12 2.61 5.84 3,800 2022-06-29 01:15:00 SFCG1
02203960 SNAPFINGER CR AT THOMPSON MILL RD NR LITHONIA, GA 16 3.34 16.9 3,080 2022-06-29 01:30:00 SFHG1
02204037 POLE BRIDGE CR AT EVANS MILL RD NEAR LITHONIA, GA 8 1.26 9.36 1,320 2022-06-29 01:30:00 PBCG1
02204070 SOUTH RIVER AT KLONDIKE ROAD, NEAR LITHONIA, GA 12 5.59 317 17,000 2022-06-29 01:45:00 SOUG1
02204130 HONEY CREEK AT GA 212, NEAR CONYERS, GA 9 1.84 10.0 3,090 2022-06-29 01:45:00 HONG1
02204285 PATES CREEK NEAR FLIPPEN, GA 12 1.72 33.0 4,400 2022-06-29 01:45:00 FLPG1
02204520 SOUTH RIVER AT GA 81, AT SNAPPING SHOALS, GA 12 7.45 825 23,700 2022-06-29 01:30:00 SPGG1
02205000 WILDCAT CREEK NEAR LAWRENCEVILLE, GA   0.63

 

1,840 2022-06-29 00:45:00 WLDG1
02205230 WOLF CREEK TRIBUTARY AT DEAN ROAD, NR SUWANEE, GA   1.88

 

364 2022-06-29 01:55:00 WLFG1
02205522 PEW CREEK AT PATTERSON RD, NEAR LAWRENCEVILLE, GA 11 3.26

 

5,000 2022-06-29 01:15:00 LAWG1
02205596 YELLOW R TRIB AT PLANTATION RD,NR LAWRENCEVILLE,GA   -0.32

 

1,310 2022-06-29 01:45:00 YETG1
02205865 SWEETWATER CREEK AT CLUB DRIVE NEAR LILBURN, GA 11 2.73 3.34 3,600 2022-06-29 01:15:00 STWG1
02205900 BEAVER RUIN CREEK AT MITCHELL RD, NR NORCROSS, GA   0.56

 

  2022-06-29 01:30:00 BVRG1
02206020 TRIB TO BROMOLOW CRK AT POND RD, NR NORCROSS, GA   0.76

 

  2022-06-29 01:30:00 BRMG1
02206100 SWEETWATER CREEK AT US 29, NEAR LUXOMNI, GA   3.76

 

  2022-06-29 01:45:00  
02206105 JACKSON CREEK AT ANGELS LANE, NEAR LILBURN, GA   1.69

 

249 2022-06-29 01:30:00 JAAG1
02206136 JACKSON CREEK TRIB 1 AT WILLIAMS RD, NR LILBURN,GA   3.72

 

214 2022-06-29 01:30:00 JAWG1
02206400 YELLOW RIVER NEAR LUXOMNI, GA   8.09

 

  2022-06-29 00:45:00  
02206465 WATSON CREEK TRIB 2, TANGLEWOOD DR, SNELLVILLE, GA   0.35

 

168 2022-06-29 01:45:00 WATG1
02207000 GARNER CREEK NEAR SNELLVILLE, GA   0.82

 

2,290 2022-06-29 01:30:00 GARG1
02207055 JACKS CREEK AT BRANNAN ROAD, NEAR SNELLVILLE, GA   0.83

 

  2022-06-29 01:00:00  
02207120 YELLOW RIVER AT GA 124, NEAR LITHONIA, GA 15 3.15 101 16,500 2022-06-29 01:45:00 YELG1
02207130 STONE MTN CR AT SILVER HILL RD, NEAR STONE MTN, GA 9 1.91

 

  2022-06-29 01:30:00 STCG1
02207135 LITTLE STONE MTN CR NEAR STONE MOUNTAIN, GA 8 2.29 0.77 800 2022-06-29 01:30:00 LSMG1
02207160 STONE MOUNTAIN CREEK AT GA 124, NEAR LITHONIA, GA 12 3.36 1.96 2,090 2022-06-29 01:45:00 SOCG1
02207185 NO BUSINESS CREEK AT LEE ROAD, BELOW SNELLVILLE,GA 9 2.99 10.4 2,440 2022-06-29 01:45:00 NOBG1
02207200 SWIFT CREEK NEAR LITHONIA, GA 9 1.58

 

800 2022-06-29 01:30:00 SFTG1
02207220 YELLOW RIVER AT PLEASANT HILL ROAD, NR LITHONIA,GA 13 1.66 133 22,900 2022-06-29 01:45:00 YLOG1
02207300 YELLOW RIVER AT MILSTEAD, GA 13 5.51

 

  2022-06-29 01:30:00 MSDG1
02207335 YELLOW RIVER AT GEES MILL ROAD, NEAR MILSTEAD, GA 11 2.12 210 20,800 2022-06-29 01:30:00 MYRG1
02207385 BIG HAYNES CREEK AT LENORA ROAD, NR SNELLVILLE, GA 10 2.77 10.4 2,180 2022-06-29 01:00:00 BIGG1
02207400 BRUSHY FORK CREEK AT BEAVER ROAD, NR LOGANVILLE,GA 9 1.24 3.09 782 2022-06-29 01:00:00 LOGG1
02207414 RANDY POYNTER LAKE AT SPILLWAY, NEAR MILSTEAD, GA   733.67

 

  2022-06-29 01:00:00  
02207418 BIG HAYNES CREEK AT JACK TURNER DAM,NR MILSTEAD GA 7 2.05 12.9 1,970 2022-06-29 01:00:00 MBHG1
02207435 LITTLE HAYNES CREEK AT DIAL MILL RD NR MILSTEAD GA 10 3.13 12.5 4,370 2022-06-29 01:45:00 MLHG1
02207448 BIG HAYNES CREEK AT BALD ROCK ROAD, NR MILSTEAD GA 12 0.32 18.4   2022-06-29 01:00:00 BHCG1
02208000 YELLOW RIVER ROCKY PLAINS RD NR ROCKY PLAINS, GA 18 4.92 302 14,500 2022-06-29 01:15:00 RKYG1
02208050 ALCOVY RIVER NEAR LAWRENCEVILLE, GA 15 -0.85

 

2,200 2022-06-29 01:30:00 LWRG1
02208130 SHOAL CREEK AT PAPER MILL RD, NR LAWRENCEVILLE, GA 11 1.58

 

2,280 2022-06-29 01:30:00 LAVG1
02208150 ALCOVY RIVER AT NEW HOPE ROAD, NEAR GRAYSON, GA 9 2.24 12.3 8,630 2022-06-29 01:45:00 ALCG1
02208450 ALCOVY RIVER ABOVE COVINGTON, GA 12 1.87 40.0 7,620 2022-06-29 01:00:00 ACYG1
02208485 CORNISH CREEK AT LOWER JERSEY RD, NR COVINGTON, GA 11 1.63 3.38 681 2022-06-29 01:45:00 CCJG1
02208487 LITTLE CORNISH CR (COUNTY ROAD 95) NR OXFORD, GA 9 0.37 1.48 386 2022-06-29 01:30:00 LCBG1
02208493 CORNISH CREEK AT HAZELBRAND RD NR COVINGTON, GA 14 6.07 4.76 1,290 2022-06-29 01:00:00 CNCG1
02209000 ALCOVY RIVER BELOW COVINGTON, GA 11 1.59 46.0 12,400 2022-06-29 01:15:00 HPTG1
02209360 EAST BEAR CREEK AT POPLAR ROAD, NR MANSFIELD, GA 9 0.80 1.47 915 2022-06-29 01:00:00 EBCG1
02210500 OCMULGEE RIVER NEAR JACKSON, GA 19 4.00 380 69,000 2022-06-29 01:45:00 JACG1
02211375 CABIN CREEK AT NORTH SECOND STREET, NR GRIFFIN, GA 13 3.54 4.25 2,250 2022-06-29 01:00:00 GFNG1
02211800 TOWALIGA RIVER AT GA 83 NEAR JULIETTE, GA 16 1.86 57.9 9,810 2022-06-29 01:45:00 TOWG1
02212600 FALLING CREEK NEAR JULIETTE, GA 13 1.31 8.82 7,920 2022-06-29 01:45:00 FALG1
02212735 OCMULGEE RIVER AT GA 18, AT DAMES FERRY, GA 16 3.34 339 80,000 2022-06-29 01:00:00 DFYG1
02213000 OCMULGEE RIVER AT MACON, GA 18 5.81 500 107,000 2022-06-29 01:30:00 MACG1
02213500 TOBESOFKEE CREEK NEAR MACON, GA 20 1.98 10.6 54,000 2022-06-29 01:45:00 TOBG1
02214075 ECHECONNEE CREEK AT HOUSTON RD, NEAR BYRON, GA 15 6.50 70.4 8,000 2022-06-29 01:15:00 BYNG1
02214590 BIG INDIAN CREEK AT US 341, NEAR CLINCHFIELD, GA 30 14.28 55.4 4,570 2022-06-29 01:15:00 CLFG1
02215000 OCMULGEE RIVER AT US 341, AT HAWKINSVILLE, GA 20 1.47 1,120 100,000 2022-06-29 01:45:00 HAWG1
02215100 TUCSAWHATCHEE CREEK NEAR HAWKINSVILLE, GA 11 1.51 29.2 11,900 2022-06-29 01:45:00 TSCG1
02215260 OCMULGEE RIVER AT ABBEVILLE, GA 12 1.56 1,300 100,000 2022-06-29 01:45:00 ABBG1
02215500 OCMULGEE RIVER AT LUMBER CITY, GA 15 1.41 1,780 98,400 2022-06-29 01:45:00 LBRG1
02215900 LITTLE OCMULGEE RIVER AT GA 149, AT SCOTLAND, GA 12 0.56 0.28 5,680 2022-06-29 01:15:00 SCTG1
02216180 TURNPIKE CREEK NEAR MCRAE, GA 10 4.24 0.00 4,980 2022-06-29 01:00:00 MCRG1
02217274 WHEELER CREEK AT BILL CHEEK ROAD, NEAR AUBURN, GA 6 1.21 0.77 928 2022-06-29 01:20:00 WLRG1
02217297 MULBERRY CREEK NEAR WINDER, GA 17 0.63 34.3 3,390 2022-06-29 01:45:00 WNRG1
02217475 MIDDLE OCONEE RIVER NEAR ARCADE, GA 16 2.27 125 13,800 2022-06-29 01:45:00 ACDG1
02217500 MIDDLE OCONEE RIVER NEAR ATHENS, GA 18 1.05 121 19,600 2022-06-29 01:30:00 MOCG1
02217615 NORTH OCONEE R AT WOODBRIDGE RD, NEAR COMMERCE, GA 15 2.05 52.3 3,860 2022-06-29 01:15:00 CMRG1
02217643 PARKS CREEK AT LYLE FIELD RD NR JEFFERSON, GA 9 3.01 1.06 576 2022-06-29 01:00:00 PACG1
02217770 NORTH OCONEE RIVER AT COLLEGE ST, AT ATHENS, GA 19 3.90 81.2 14,500 2022-06-29 01:00:00 NOCG1
02218300 OCONEE RIVER NEAR PENFIELD, GA 13 3.33 295 61,000 2022-06-29 01:00:00 PNFG1
02218565 APALACHEE RIVER AT FENCE ROAD, NEAR DACULA, GA 8 0.25 1.46 2,190 2022-06-29 01:00:00 DACG1
02218900 APALACHEE RIVER AT SNOWS MILL RD, NR BISHOP, GA   4.04 47.6   2022-06-29 01:45:00 BHPG1
02219000 APALACHEE RIVER NEAR BOSTWICK, GA 9 1.59 53.2 11,200 2022-06-29 01:45:00 BWKG1
02220788 LITTLE RIVER AT NEWBORN RD NEAR NEWBORN, GA 12 3.50 8.43 1,530 2022-06-29 01:15:00 NWBG1
02220900 LITTLE RIVER NEAR EATONTON, GA 20 2.72 17.5 15,000 2022-06-29 01:30:00 EANG1
02221525 MURDER CREEK BELOW EATONTON, GA 10 1.42 27.8 9,630 2022-06-29 01:30:00 MTLG1
02223000 OCONEE RIVER AT MILLEDGEVILLE, GA 22 7.13 289 140,000 2022-06-29 01:45:00 MLGG1
02223056 OCONEE RIVER AT AVANT MINE, NEAR OCONEE, GA 18 1.53 331 11,300 2022-06-29 01:45:00 OCOG1
02223110 BUFFALO CREEK AT GA 272, NEAR OCONEE, GA 15 5.97 16.0 7,540 2022-06-29 01:30:00 BFOG1
02223190 COMMISSIONER CREEK AT US 441, AT MCINTYRE, GA 13 7.12 19.3 13,000 2022-06-29 01:30:00 MITG1
02223248 OCONEE RIVER NEAR OCONEE, GA 17 1.09 431 96,900 2022-06-29 01:45:00 OCNG1
02223360 BIG SANDY CREEK AT US 441, NEAR IRWINTON, GA 10 2.66 5.71 8,260 2022-06-29 01:30:00 IWTG1
02223500 OCONEE RIVER AT DUBLIN, GA 21 1.08 476 96,700 2022-06-29 01:45:00 DBNG1
02224500 OCONEE RIVER NEAR MOUNT VERNON, GA 16 1.30 875 96,000 2022-06-29 01:00:00 MTVG1
02224940 ALTAMAHA RIVER AT US 221, NR CHARLOTTEVILLE, GA 13 1.14 2,410 210,000 2022-06-29 01:45:00 CHRG1
02225000 ALTAMAHA RIVER NEAR BAXLEY, GA 12.99 2.22 2,580 230,000 2022-06-29 01:45:00 BAXG1
02225270 OHOOPEE RIVER AT GA 297, NEAR SWAINSBORO, GA 18 6.95 1.83 13,000 2022-06-29 01:30:00 SWOG1
02225500 OHOOPEE RIVER NEAR REIDSVILLE, GA 11 1.68 62.9 47,000 2022-06-29 01:00:00 REDG1
02226000 ALTAMAHA RIVER AT DOCTORTOWN, GA 12 3.76 2,510 300,000 2022-06-29 01:00:00 DCTG1
02226160 ALTAMAHA RIVER NEAR EVERETT CITY, GA 13 5.29 Eqp 300,000 2022-06-27 04:45:00 EVRG1
02226180 BRUNSWICK RIVER AT ST. SIMONS ISLAND, GA 4.97 -1.88

 

6.17 2022-06-29 01:45:00 BRNG1
02226362 SATILLA RIVER AT GA 158, NEAR WAYCROSS, GA 14 3.46 47.8 34,500 2022-06-29 01:30:00 TMOG1
02226500 SATILLA RIVER NEAR WAYCROSS, GA 16 4.44 33.9 42,100 2022-06-29 01:45:00 AYSG1
02227270 ALABAHA RIVER AT GA 203, NEAR BLACKSHEAR, GA 9 1.20 0.05 21,000 2022-06-29 01:30:00 ABAG1
02227500 LITTLE SATILLA RIVER NEAR OFFERMAN, GA 9 1.81 0.02 38,000 2022-06-29 01:45:00 OFFG1
02228000 SATILLA RIVER AT ATKINSON, GA 13 3.34 139 110,000 2022-06-29 01:45:00 ATKG1
02228070 SATILLA RIVER AT US 17, AT WOODBINE, GA 4.21 1.53 18,100 2022-06-29 01:00:00 SRWG1
02228295 CUMBERLAND SOUND AT SEA CAMP DOCK, NR ST MARYS, GA 5.05 -0.23

 

  2022-06-29 01:00:00 CSAG1
02231175 ST MARYS RIVER AT FERRY LANDING NEAR FOLKSTON, GA 7 1.20 ***   2022-06-29 01:15:00 SMTG1
02231254 ST MARY'S RIVER AT I-95, NEAR KINGSLAND, GA 3.47 1.59 13,600 25,800 2022-06-29 01:15:00 KLNG1
02231284 THOMAS CREEK AT SH 115 NR CALLAHAN, FLA.   8.97

 

  2022-06-29 00:00:00  
02314495 SUWANNEE RIVER ABOVE FARGO, GA   4.58

 

13,200 2022-06-29 01:00:00  
02314500 SUWANNEE RIVER AT US 441, AT FARGO, GA 13.00 2.26 124 13,800 2022-06-29 01:00:00 FGOG1
02315920 ALAPAHA RIVER AT GA 125/32 NEAR IRWINVILLE, GA 9.90 1.00 0.02 15,000 2022-06-28 20:45:00 IVLG1
02316000 ALAPAHA RIVER NEAR ALAPAHA, GA 15.40 0.93 1.33 16,000 2022-06-29 01:00:00 ALAG1
02317500 ALAPAHA RIVER AT STATENVILLE, GA 23.90 1.23 65.7 33,400 2022-06-29 01:45:00 STNG1
023177483 WITHLACOOCHEE R AT SKIPPER BRIDGE RD,NR BEMISS, GA 14.70 1.38 9.04 37,500 2022-06-29 01:30:00 VDSG1
02317755 WITHLACOOCHEE RIVER AT US 41 NEAR VALDOSTA, GA 125 4.36

 

38,000 2022-06-29 01:30:00 VDRG1
02317797 LITTLE RIVER AT UPPER TY TY ROAD, NEAR TIFTON, GA   -2.00 0.00 6,020 2022-06-29 01:15:00 TWCG1
02318000 LITTLE RIVER NEAR ADEL, GA 15.90 2.11 0.39 38,800 2022-06-29 01:00:00 ADLG1
02318380 LITTLE RIVER AT GA 122, NEAR HAHIRA, GA 18.20 3.72 15.2 45,000 2022-06-29 01:15:00 HRAG1
02318500 WITHLACOOCHEE RIVER AT US 84, NEAR QUITMAN, GA 20.50 1.77 15.3 62,000 2022-06-29 01:00:00 QUTG1
02327355 OCHLOCKONEE RIVER AT GA 188, NEAR COOLIDGE, GA 13 1.91 0.79 35,000 2022-06-29 01:30:00 CLDG1
02327500 OCHLOCKONEE RIVER NEAR THOMASVILLE, GA 15 1.54 3.34 66,000 2022-06-29 01:45:00 TMLG1
02329342 LITTLE ATTAPULGUS CREEK AT ATTAPULGUS, GA   1.08 2.02 175 2022-06-29 01:00:00 ATPG1
02330450 CHATTAHOOCHEE RIVER AT HELEN, GA 6 0.78 79.5 10,500 2022-06-29 01:00:00 HDCG1
02331000 CHATTAHOOCHEE RIVER NEAR LEAF, GA   1.89 250 22,500 2022-06-29 01:45:00  
023312495 SOQUE RIVER AT GA 197, NEAR CLARKESVILLE, GA 14 3.88 141 7,510 2022-06-29 01:00:00 CSQG1
02331600 CHATTAHOOCHEE RIVER NEAR CORNELIA, GA 14 0.95 436 27,900 2022-06-29 01:45:00 DCNG1
02333500 CHESTATEE RIVER NEAR DAHLONEGA, GA 19 1.17 173 22,700 2022-06-29 01:45:00 DGAG1
02334400 LAKE SIDNEY LANIER NEAR BUFORD, GA 1085 1070.26

 

  2022-06-29 01:15:00 CMMG1
02334401 CHATTAHOOCHEE RIVER (BUFORD DAM) NR BUFORD, GA   912.19

 

  2022-06-29 01:15:00  
02334430 CHATTAHOOCHEE RIVER AT BUFORD DAM, NEAR BUFORD, GA 12 -0.50 553 13,800 2022-06-29 01:45:00 BUFG1
02334480 RICHLAND CREEK AT SUWANEE DAM ROAD, NEAR BUFORD,GA 10 0.43 5.73 3,090 2022-06-29 01:30:00 RLCG1
02334578 LEVEL CREEK AT SUWANEE DAM ROAD, NEAR SUWANEE, GA 9 3.55 0.59 2,800 2022-06-29 01:15:00 SWAG1
02334620 DICK CREEK AT OLD ATLANTA RD, NEAR SUWANEE, GA 10 4.70 2.34 2,570 2022-06-29 01:00:00 DICG1
02334653 CHATTAHOOCHEE R 0.76 MI US MCGINNIS FY SUWANEE GA 22 6.26 2,550 18,100 2022-06-29 01:30:00 WSWG1
02334770 IVY CREEK AT THOMPSON MILL ROAD, NEAR BUFORD, GA   1.86

 

  2022-06-29 01:30:00 IVYG1
02334885 SUWANEE CREEK AT SUWANEE, GA 8 0.60 17.9 7,870 2022-06-29 01:15:00 SWEG1
02335000 CHATTAHOOCHEE RIVER NEAR NORCROSS, GA 12 7.12 5,380 55,000 2022-06-29 01:15:00 NCRG1
02335350 CROOKED CREEK NEAR NORCROSS, GA 11 3.91 10.4 2,740 2022-06-29 00:45:00 CRKG1
02335450 CHATTAHOOCHEE RIVER ABOVE ROSWELL, GA 9 6.01 5,080 21,100 2022-06-29 01:45:00 RWLG1
02335580 BIG CREEK AT GA 9, NEAR CUMMING, GA 6 0.67 44.5 4,800 2022-06-29 01:45:00 CMGG1
02335700 BIG CREEK NEAR ALPHARETTA, GA 7 2.24 56.5 6,100 2022-06-29 01:45:00 APHG1
02335757 BIG CREEK BELOW HOG WALLOW CREEK AT ROSWELL, GA 10 2.94 97.6 6,240 2022-06-29 01:15:00 RWSG1
02335790 WILLEO CREEK AT GA 120, NEAR ROSWELL, GA 12 0.97 6.10 6,200 2022-06-29 01:45:00 WLOG1
02335810 CHATTAHOOCHEE RIVER AT MORGAN FALLS DAM, GA   864.50

 

  2022-06-29 01:15:00  
02335815 CHATTAHOOCHEE RIVER BELOW MORGAN FALLS DAM, GA 821 812.09 1,820 35,500 2022-06-29 01:45:00 MGFG1
023358685 SEWELL MILL CREEK AT GA 120, NEAR MARIETTA, GA 11 0.96 4.79 4,570 2022-06-29 01:15:00 SMCG1
02335870 SOPE CREEK NEAR MARIETTA, GA 12 0.93 6.10 9,500 2022-06-29 01:45:00 MARG1
02335880 CHATT R AT POWERS FY & I-285 NR ATLANTA, GA 13 4.14 1,630 63,000 2022-06-29 01:30:00 VNPG1
02335910 ROTTENWOOD CR AT INTERSTATE N PKWY, NR SMYRNA, GA 14 2.21 5.63 4,880 2022-06-29 01:00:00 SMAG1
02335990 CHATTAHOOCHEE RIVER AT US 41, AT ATLANTA, GA 14 4.96

 

28,900 2022-06-29 01:45:00 VIXG1
02336000 CHATTAHOOCHEE RIVER AT ATLANTA, GA 14 3.59 1,660 64,000 2022-06-29 01:45:00 VING1
02336030 N.F. PEACHTREE CREEK AT GRAVES RD, NR DORAVILLE,GA 12 1.59 0.52 2,850 2022-06-29 01:00:00 NFPG1
02336106 N FK PEACHTREE CR AT BRIARWOOD RD, NR ATLANTA, GA 10 2.23

 

4,500 2022-06-29 01:15:00 NFBG1
02336120 N.F. PEACHTREE CREEK, BUFORD HWY, NEAR ATLANTA, GA 13 3.75 9.13 6,140 2022-06-29 01:15:00 NPBG1
02336152 SOUTH FORK PEACHTREE AT CASA DR, NR CLARKSTON, GA 10 3.13 1.11 1,650 2022-06-29 01:15:00 SFPG1
023362075 BURNT FORK CREEK AT MONTREAL RD, NEAR TUCKER, GA 8 1.06

 

  2022-06-29 01:45:00 BKCG1
023362095 BURNT FORK CR AT MILLWOOD WAY NEAR CLARKSTON, GA 9 1.30 0.96 1,120 2022-06-29 01:00:00 BFCG1
02336240 S.F. PEACHTREE CREEK JOHNSON RD, NEAR ATLANTA, GA 13 3.48 15.3 4,900 2022-06-29 01:15:00 SPJG1
02336300 PEACHTREE CREEK AT ATLANTA, GA 17 2.29 33.2 21,000 2022-06-29 01:00:00 AANG1
02336313 WOODALL CREEK AT DEFOORS FERRY RD, AT ATLANTA, GA 15 0.45 0.94 2022-06-29 01:30:00 WDCG1
02336340 NANCY CREEK AT JOHNSON FERRY RD, AT CHAMBLEE, GA 16 3.63 4.95 4,200 2022-06-29 01:30:00 NCDG1
02336360 NANCY CREEK AT RICKENBACKER DRIVE, AT ATLANTA, GA 11 0.55 8.42 4,500 2022-06-29 01:15:00 NCKG1
02336410 NANCY CREEK AT WEST WESLEY ROAD, AT ATLANTA, GA 12 1.66 8.29 6,440 2022-06-29 01:15:00 NANG1
02336490 CHATTAHOOCHEE RIVER AT GA 280, NEAR ATLANTA, GA 24 5.11 1,610 42,300 2022-06-29 01:00:00 CHAG1
02336526 PROCTOR CREEK AT JACKSON PARKWAY, AT ATLANTA, GA 13 3.12 2.65 8,000 2022-06-29 01:15:00 PRCG1
02336635 NICKAJACK CREEK AT US 78/278, NEAR MABLETON, GA 10 1.56 11.5 7,500 2022-06-29 01:00:00 NICG1
02336728 UTOY CREEK AT GREAT SOUTHWEST PKWY NR ATLANTA, GA 18 3.15 32.6 3,220 2022-06-29 01:15:00 UTYG1
02336840 SWEETWATER CREEK,BROWNSVILLE RD,POWDER SPRINGS,GA 13 3.13 28.3 30,000 2022-06-29 01:45:00 PDSG1
02336870 POWDER SPRINGS CREEK NEAR POWDER SPRINGS, GA 11 1.47 4.96 8,940 2022-06-29 00:45:00 POWG1
02336910 SWEETWATER CR 0.05 MI US RR BRIDGE AT AUSTELL, GA 19 5.38 50.1 2,970 2022-06-29 01:45:00 NATG1
02336968 NOSES CREEK AT POWDER SPRINGS RD,POWDER SPRINGS,GA 11 1.82 4.78 3,000 2022-06-29 01:30:00 NOSG1
02336986 OLLEY CREEK AT CLAY ROAD, NEAR AUSTELL, GA 12 2.01 3.66 841 2022-06-29 00:45:00 OLYG1
02337000 SWEETWATER CREEK NEAR AUSTELL, GA 10 1.01 60.1 31,500 2022-06-29 01:45:00 AUSG1
02337040 SWEETWATER CREEK BELOW AUSTELL, GA 21 1.11 56.3 20.02 2022-06-29 00:45:00 ASTG1
02337170 CHATTAHOOCHEE RIVER NEAR FAIRBURN, GA 20 2.17 2,780 75,000 2022-06-29 01:30:00 FBNG1
02337260 CHATTAHOOCHEE RIVER ABOVE BEAR CR, NEAR RICO, GA   3.02

 

  2022-06-29 01:45:00  
02337410 DOG RIVER AT GA 5, NEAR FAIRPLAY, GA 13 3.54 44.0 59,900 2022-06-29 01:15:00 DOGG1
02337498 SNAKE CRK DS SNAKE CRK RESERVIOR NR WHITESBURG, GA 13 3.38 16.3 1,500 2022-06-29 01:00:00 WHGG1
02337500 SNAKE CREEK NEAR WHITESBURG, GA 12 1.82 13.9 13,500 2022-06-29 01:45:00 SNKG1
02338000 CHATTAHOOCHEE RIVER NEAR WHITESBURG, GA 17 4.51 2,980 95,000 2022-06-29 01:15:00 WHTG1
02338500 CHATTAHOOCHEE RIVER AT GA 100, AT FRANKLIN, GA 23 11.25 4,920 105,000 2022-06-29 01:00:00 FRNG1
02338523 HILLABAHATCHEE CREEK AT THAXTON RD, NR FRANKLIN,GA 12 2.08 14.6 5,740 2022-06-29 01:45:00 HILG1
02338660 NEW RIVER AT GA 100, NEAR CORINTH, GA 12 3.82 54.3 10,000 2022-06-29 01:00:00 NRVG1
02338840 YELLOWJACKET CREEK-HAMMETT RD, BLW HOGANSVILLE, GA 8 0.85 31.4 9,830 2022-06-29 01:30:00 YJCG1
02339400 WEST POINT LAKE NEAR WEST POINT, GA 641 633.78

 

  2022-06-29 01:15:00 WETG1
02339402 CHATTAHOOCHEE RIVER BELOW WEST POINT DAM, GA   557.80

 

  2022-06-29 01:15:00  
02339500 CHATTAHOOCHEE RIVER AT WEST POINT, GA 17 2.46 808 134,000 2022-06-29 01:00:00 WTPG1
02341460 CHATTAHOOCHEE RIVER AT 14TH ST, AT COLUMBUS, GA 27 19.13 4,600 95,200 2022-06-29 01:30:00 CBUG1
02341800 UPATOI CREEK NEAR COLUMBUS, GA 24 3.65 132 46,300 2022-06-29 01:30:00 UPAG1
02342850 HANNAHATCHEE CREEK AT UNION ROAD, AT UNION, GA 16 1.58 56.7 9,280 2022-06-29 01:45:00 UNIG1
02342881 CHATTAHOOCHEE RIVER AT SPUR 39, NEAR OMAHA, GA   187.47 6,380 150,000 2022-06-29 01:30:00  
02343225 PATAULA CREEK NEAR GEORGETOWN, GA   2.69 119 65,000 2022-06-29 01:45:00 MRSG1
02343240 WALTER F. GEORGE RESERVOIR NEAR FORT GAINES, GA   187.76

 

  2022-06-29 01:15:00 FOGG1
02343241 CHATTAHOOCHEE R BELOW WFG DAM AB FT. GAINES, GA 134 102.02

 

  2022-06-29 01:15:00 FOGG1
023432415 CHATTAHOOCHEE R .36 MI DS WFG DAM NR FT GAINES, GA   102.21 66.1 156,000 2022-06-29 01:45:00 FPHA1
02343801 CHATTAHOOCHEE RIVER NEAR COLUMBIA, AL 106 77.04 1,300 202,000 2022-06-29 01:45:00 COLA1
02343940 SAWHATCHEE CREEK AT CEDAR SPRINGS, GA   2.53 19.5 5,380 2022-06-29 01:15:00 CEDG1
02344143 FLINT RIVER AT GA 85, NEAR FOREST PARK, GA   -1.26 11.4 4,630 2022-06-29 01:45:00 FRSG1
02344350 FLINT RIVER NEAR LOVEJOY, GA 12 5.61 459 19,000 2022-06-29 01:45:00 LOVG1
02344396 FLINT RIVER AT WOOLSEY ROAD, NEAR WOOLSEY, GA 48 40.40 389 12,000 2022-06-29 00:45:00 WSEG1
02344423 LAKE HORTON (HEADWATER) NEAR FAYETTEVILLE, GA   779.55

 

  2022-06-29 01:15:00 LHBG1
02344424 LAKE HORTON (TAILRACE) NEAR FAYETTEVILLE, GA   746.49 3.19 208 2022-06-29 01:15:00  
02344478 SHOAL CREEK AT SHOAL CREEK ROAD, NEAR GRIFFIN, GA 7 -0.20 4.72 6,570 2022-06-29 01:45:00 SHLG1
02344500 FLINT RIVER NEAR GRIFFIN, GA 12 3.35 138 31,500 2022-06-29 01:45:00 GRFG1
02344605 LINE CREEK BELOW GA 54, NEAR PEACHTREE CITY, GA 12 3.82 29.6 3,380 2022-06-29 01:00:00 PHCG1
02344620 SHOAL CREEK AT GA54, NEAR SHARPSBURG, GA 10 2.31 22.3 3,570 2022-06-29 01:30:00 SHPG1
02344628 LAKE MCINTOSH NEAR PEACHTREE CITY, GA   779.72

 

  2022-06-29 01:15:00  
02344630 LINE CREEK BLW LAKE MCINTOSH, NR PEACHTREE CITY,GA 10 2.40 42.5 6,000 2022-06-29 01:00:00 LMCG1
02344650 LAKE KEDRON NEAR PEACHTREE CITY, GA   834.65

 

  2022-06-29 01:15:00  
02344655 FLAT CR DS OF LAKE KEDRON, NR PEACHTREE CITY, GA 10 2.52 6.39 750 2022-06-29 01:15:00 LKTG1
02344671 LAKE PEACHTREE (HEADWATER) AT PEACHTREE CITY, GA   784.51

 

  2022-06-29 01:15:00  
02344673 FLAT CREEK (DS OF LAKE) AT PEACHTREE CITY, GA 10 2.34 11.6 1,040 2022-06-29 01:15:00 LPTG1
02344700 LINE CREEK NEAR SENOIA, GA 10 2.94 97.8 28,400 2022-06-29 01:45:00 LING1
02344872 FLINT RIVER BELOW BIG BRANCH, NEAR MOLENA, GA 28 5.20 225 30,000 2022-06-29 01:00:00 MOLG1
02346180 FLINT RIVER NEAR THOMASTON, GA 11 3.19 334 62,000 2022-06-29 01:15:00 TMSG1
02346310 POTATO CREEK AT COUNTY LINE RD, NR ORCHARD HILL,GA 11 5.86 0.62 1,810 2022-06-29 01:15:00 POTG1
02347500 FLINT RIVER AT US 19, NEAR CARSONVILLE, GA 18 2.08 520 100,000 2022-06-29 01:45:00 CLUG1
02349605 FLINT RIVER AT GA 26, NEAR MONTEZUMA, GA 20 2.11 1,390 136,000 2022-06-29 01:15:00 MNTG1
02349900 TURKEY CREEK AT BYROMVILLE, GA 10 4.24 4.05 5,820 2022-06-29 01:30:00 BVLG1
02350512 FLINT RIVER AT GA 32, NEAR OAKFIELD, GA 23 3.96 2,060 112,000 2022-06-29 01:45:00 OKFG1
02350600 KINCHAFOONEE CREEK AT PRESTON, GA 7 1.28 36.4 14,500 2022-06-29 01:00:00 PRSG1
02350900 KINCHAFOONEE CREEK AT PINEWOOD ROAD, NR DAWSON, GA 13 2.32 99.7 29,500 2022-06-29 01:45:00 DSNG1
02351100 KINCHAFOONEE CREEK AT CENTURY RD,NEAR LEESBURG,GA   4.29

 

15,500 2022-06-29 01:00:00 KCCG1
02351500 MUCKALEE CREEK NEAR AMERICUS, GA 10 1.76 32.2 33,500 2022-06-29 01:45:00 MUCG1
02351890 MUCKALEE CREEK AT GA 195, NEAR LEESBURG, GA 13 3.15 75.0 64,400 2022-06-29 01:45:00 MCKG1
02351925 MUCKALEE CREEK AT FORRESTER PKWY NEAR LEESBURG, GA 16 5.75

 

  2022-06-29 01:00:00 MUFG1
02352500 FLINT RIVER AT ALBANY, GA 26 4.29 3,550 120,000 2022-06-29 01:45:00 ABNG1
02353000 FLINT RIVER AT NEWTON, GA 24 4.17 1,790 100,000 2022-06-29 01:45:00 NEWG1
02353265 ICHAWAYNOCHAWAY CREEK AT GA 37, NEAR MORGAN, GA 14 5.68 47.4 10,000 2022-06-29 01:00:00 MGNG1
02353400 PACHITLA CREEK NEAR EDISON, GA 7.8 1.52 28.4 43,000 2022-06-29 01:45:00 PCHG1
02353500 ICHAWAYNOCHAWAY CREEK AT MILFORD, GA 11 0.09 53.8 53,000 2022-06-29 01:00:00 MLFG1
02354350 CHICKASAWHATCHEE CREEK NEAR ALBANY, GA   0.41 0.02 836 2022-06-29 01:45:00  
02354475 SPRING CREEK NEAR LEARY, GA   1.31 1.83 55.0 2022-06-29 01:00:00  
02354500 CHICKASAWHATCHEE CREEK AT ELMODEL, GA 10 -0.24 6.18 16,000 2022-06-29 01:15:00 ELMG1
02354800 ICHAWAYNOCHAWAY CREEK NEAR ELMODEL, GA 18 3.37 101 29,200 2022-06-29 01:00:00 EMOG1
02355350 ICHAWAYNOCHAWAY CREEK BELOW NEWTON, GA 17 2.01 209 31,000 2022-06-29 01:30:00 ICHG1
02355662 FLINT RIVER AT RIVERVIEW PLANTATION, NR HOPEFUL,GA 30 4.68 2,610 64,600 2022-06-29 00:45:00 HOPG1
02356000 FLINT RIVER AT BAINBRIDGE, GA 25 18.81 2,380 108,000 2022-06-29 01:45:00 BGEG1
02356638 SPRING CREEK APPROX .25 MI US US27 NR COLQUITT, GA 10 2.19 22.4 2022-06-29 01:30:00 CQUG1
02357000 SPRING CREEK NEAR IRON CITY, GA 16 2.15 52.1 34,500 2022-06-29 01:00:00 IRCG1
02357150 SPRING CREEK NEAR REYNOLDSVILLE, GA   76.64 70.1 82.52 2022-06-29 01:30:00 REYG1
02357500 LAKE SEMINOLE NEAR CHATTAHOOCHEE, FL   76.69

 

  2022-06-29 01:00:00  
02357700 APALACHICOLA RIVER BL WOODRUFF DAM, NR SNEADS, FL 63 39.62

 

  2022-06-29 01:00:00 WDRF1
02379500 CARTECAY RIVER NEAR ELLIJAY, GA 7 1.82 182 20,000 2022-06-29 01:30:00 EECG1
02380500 COOSAWATTEE RIVER NEAR ELLIJAY, GA 8 1.68 272 25,000 2022-06-29 01:45:00 ELIG1
02381090 MOUNTAINTOWN CREEK AT GA 282, NEAR ELLIJAY, GA 12 3.23 78.4 3,940 2022-06-29 01:15:00 MNCG1
02381400 CARTERS LAKE NEAR CARTERS, GA   1073.53

 

  2022-06-29 01:15:00 CTRG1
02381401 CARTERS LAKE TAILRACE NEAR CARTERS, GA   689.24

 

  2022-06-29 01:15:00  
02381600 FAUSETT CREEK NEAR TALKING ROCK, GA 10 1.52 8.45 3,520 2022-06-29 01:45:00 FCTG1
02382200 TALKING ROCK CREEK NEAR HINTON, GA 10 1.13 54.7 19,000 2022-06-29 01:45:00 TKRG1
02382400 CARTERS RE-REGULATION LAKE NEAR CARTERS, GA   38.06

 

2022-06-29 01:15:00  
02382500 COOSAWATTEE RIVER AT CARTERS, GA 20 4.52 477 57,000 2022-06-29 01:45:00 CATG1
02383500 COOSAWATTEE RIVER NEAR PINE CHAPEL, GA 25 4.25 448 40,200 2022-06-29 01:00:00 RDBG1
02383520 COOSAWATTEE RIVER AT PINE CHAPEL, GA 22 1.41

 

40,200 2022-06-29 01:00:00 PING1
02384500 CONASAUGA RIVER AT GA 286, NEAR ETON, GA 12 2.60 105 33,200 2022-06-29 01:00:00 ETNG1
02384540 MILL CREEK NEAR CRANDALL, GA 8 1.18 2.50 2,240 2022-06-29 01:45:00 CNDG1
02385170 COAHULLA CREEK AT KEITHS MILL ROAD, NEAR DALTON,GA 16 7.62 49.9 7,120 2022-06-29 01:45:00 CHCG1
02385500 MILL CREEK AT DALTON, GA 11 4.21 20.3 5,680 2022-06-29 01:00:00 DLNG1
02385800 HOLLY CREEK NEAR CHATSWORTH, GA 10 1.01 13.4 20,600 2022-06-29 01:00:00 HOLG1
02387000 CONASAUGA RIVER AT TILTON, GA 18 2.65 183 40,000 2022-06-29 01:00:00 TLNG1
02387010 CONASAUGA RIVER AT SLOAN BRIDGE, BELOW DALTON, GA 18 -0.06

 

36,800 2022-06-29 01:00:00 DLBG1
02387500 OOSTANAULA RIVER AT RESACA, GA 22 2.39 802 68,600 2022-06-29 01:15:00 RSCG1
02387520 OOSTANAULA RIVER AT CALHOUN, GA 21 3.18

 

45,500 2022-06-29 01:15:00 CALG1
02387600 OOTHKALOOGA CREEK AT GA 53 SPUR, AT CALHOUN, GA 18 7.17 42.0 2,940 2022-06-29 01:00:00 OTKG1
02388320 HEATH CREEK NEAR ARMUCHEE, GA 8 1.33 2.13 1,240 2022-06-29 01:45:00 ARMG1
02388350 ARMUCHEE CREEK AT OLD DALTON ROAD, NEAR ROME, GA 19 3.97 55.8 12,300 2022-06-29 01:45:00 ARCG1
02388500 OOSTANAULA RIVER NEAR ROME, GA 30 4.85 877 70,000 2022-06-29 01:45:00 RGAG1
02388525 OOSTANAULA RIVER AT US 27, AT ROME, GA 25 3.38

 

23.69 2022-06-29 01:45:00 RTMG1
02388975 ETOWAH RIVER AT GA 136, NEAR LANDDRUM, GA 14 2.07 146 5,100 2022-06-29 01:45:00 LANG1
02388985 RUSSELL CRK 0.3 MI DS HEAD LAKE NR DAWSONVILLE, GA 13 0.58

 

  2022-06-29 01:15:00 RUSG1
02389050 ETOWAH RIVER 0.2 MI DS GA 53, NR DAWSONVILLE, GA 14 4.19 159 5,650 2022-06-29 01:00:00 DWLG1
02389150 ETOWAH RIVER AT GA 9, NEAR DAWSONVILLE, GA 13 4.24 166 6,100 2022-06-29 01:00:00 DWSG1
02390000 AMICALOLA CREEK NEAR DAWSONVILLE, GA. 10 0.70 120 7,450 2022-06-29 01:15:00 DONG1
02390050 ETOWAH RIVER AT KELLY BRIDGE ROAD, NEAR MATT, GA 19 1.74 338 9,730 2022-06-29 01:00:00 BRTG1
02390140 SETTINGDOWN CREEK NEAR BALL GROUND, GA 13 1.13 46.8 1,200 2022-06-29 01:15:00 FREG1
02391540 SHARP MTN CREEK AT OLD GA 5, BELOW BALL GROUND, GA 18 3.22 47.3 4,160 2022-06-29 01:15:00 BALG1
02391840 HICKORY LOG CREEK NEAR CANTON, GA 8 0.87 5.09 2,100 2022-06-29 01:00:00 HLCG1
02391860 ETOWAH RIVER DOWNSTREAM OF I-575, AT CANTON, GA 17 3.16 549 15,400 2022-06-29 01:45:00 ECTG1
02392000 ETOWAH RIVER AT CANTON, GA 16 2.20 585 36,700 2022-06-29 01:15:00 CNNG1
02392360 SHOAL CREEK AT GA 108, NEAR WALESKA, GA 14 2.30 21.3 2,510 2022-06-29 01:15:00 WALG1
02392780 LITTLE RIVER AT GA 5, NEAR WOODSTOCK, GA 11 1.25 112 16,100 2022-06-29 01:15:00 WODG1
02392920 NOONDAY CR US CHASTAIN MEADOWS PKWY, MARIETTA, GA 11 2.19 8.70 1,380 2022-06-29 01:15:00 NBSG1
02392950 NOONDAY CREEK AT HAWKINS STORE RD, NR WOODSTOCK,GA 11 0.77 9.35 11,900 2022-06-29 01:30:00 NDYG1
02392975 NOONDAY CREEK AT SHALLOWFORD ROAD, NR WOODSTOCK,GA 10 1.44 15.2 11,400 2022-06-29 01:30:00 NOOG1
02393377 BUTLER CREEK AT MACK DOBBS ROAD, NR KENNESAW, GA 11 2.36 2.17 6,760 2022-06-29 01:00:00 BTCG1
02393419 ALLATOONA CREEK AT STILESBORO RD, NEAR ACWORTH, GA 13 4.98 6.42 16,600 2022-06-29 01:15:00 MAHG1
02393500 ALLATOONA LAKE NEAR CARTERSVILLE, GA   839.54

 

  2022-06-29 01:15:00 CVLG1
02393501 ETOWAH RIVER ALLATOONA DAM TW, ABV CARTERSVILLE,GA   690.08

 

  2022-06-29 01:15:00  
02394000 ETOWAH RIVER AT ALLATOONA DAM, ABV CARTERSVILLE,GA 9 1.29 388 40,400 2022-06-29 01:45:00 ETWG1
02394670 ETOWAH RIVER AT GA 61, NEAR CARTERSVILLE, GA 18 5.99 1,020 55,000 2022-06-29 01:00:00 CTVG1
02394682 RICHLAND CREEK AT OLD DALLAS RD, NEAR DALLAS, GA 8 0.96 1.70   2022-06-29 01:30:00 RCDG1
02394820 EUHARLEE CREEK AT US 278, AT ROCKMART, GA 9 2.34 55.8 7,000 2022-06-29 01:30:00 RKMG1
02395000 ETOWAH RIVER NEAR KINGSTON,GA 20 3.88 690 52,000 2022-06-29 01:00:00 KGTG1
02395120 TWO RUN CREEK NEAR KINGSTON, GA 8 1.21 14.3 4,600 2022-06-29 01:00:00 KTRG1
02395980 ETOWAH RIVER AT GA 1 LOOP, NEAR ROME, GA 32 13.30 910 55,000 2022-06-29 01:00:00 ROEG1
02395996 ETOWAH RIVER AT COOSA VALLEY F.G., AT ROME, GA 32 5.02

 

  2022-06-29 01:00:00 ERRG1
02397000 COOSA RIVER (MAYO'S BAR) NEAR ROME, GA 24 11.40 2,060 100,000 2022-06-29 01:45:00 RMBG1
02397410 CEDAR CREEK AT GA AVE, AT CEDARTOWN, GA 15 3.41

 

16,500 2022-06-29 01:30:00 CTWG1
02397500 CEDAR CREEK NEAR CEDARTOWN, GA 11 1.19 101 17,000 2022-06-29 00:45:00 CCDG1
02397530 COOSA RIVER AT STATE LINE, AL/GA   14.23 3,060 91,100 2022-06-29 00:45:00  
02398000 CHATTOOGA RIVER AT SUMMERVILLE, GA 14 2.34 111 30,100 2022-06-29 01:45:00 SUMG1
02411930 TALLAPOOSA RIVER AT US 78, NEAR TALLAPOOSA, GA 16 4.34 913 6,850 2022-06-29 01:00:00 TLAG1
02413000 LITTLE TALLAPOOSA RIVER AT US 27, AT CARROLLTON,GA 18 2.50 77.5 6,210 2022-06-29 01:00:00 CANG1
02413205 LITTLE TALLAPOOSA R AT REAVESVILLE RD NR BOWDON,GA   10.11

 

  2022-06-29 01:45:00  
02413210 LITTLE TALLAPOOSA R AT GA 100, NEAR BOWDON, GA 17 4.01 233 4,310 2022-06-29 01:00:00 BWNG1
02413215 INDIAN CREEK UPSTREAM OF TEAGUE RD, NR BOWDON, GA   0.81

 

  2022-06-29 01:00:00  
03544970 HIWASSEE RIVER AT RIVERSIDE DR, NR HIAWASSEE, GA 10 2.70 68.4 2,960 2022-06-29 01:45:00 HWEG1
03550500 NOTTELY RIVER NEAR BLAIRSVILLE, GA 13 1.82 97.9 12,900 2022-06-29 01:45:00 BRVG1
03558000 TOCCOA RIVER NEAR DIAL, GA 12 1.41 313 28,000 2022-06-29 01:30:00 HURG1
03566700 SOUTH CHICKAMAUGA CREEK AT RINGGOLD, GA 15 3.92 62.2 33,400 2022-06-29 01:30:00 SCKG1
03567340 WEST CHICKAMAUGA CR AT GA 146, NEAR LAKEVIEW, GA 11 0.83 51.2 7,880 2022-06-29 01:15:00 WCKG1
03568400 CHATTANOOGA CREEK AT GA193, NEAR FLINTSTONE, GA 10 2.94 10.1 2,200 2022-06-29 01:30:00 CCFG1
03568933 LOOKOUT CREEK NEAR NEW ENGLAND, GA 12 3.41 39.4 20,000 2022-06-29 01:00:00 ENGG1